Time;durP1;ratioP1;P1;durP2;ratioP2;P2;SDS_P1;SDS_P2;PMS_P1;PMS_P2;Temp;Humidity;BMP_temperature;BMP_pressure;BME280_temperature;BME280_humidity;BME280_pressure;Samples;Min_cycle;Max_cycle;Signal;HPM_P1;HPM_P2
2023/03/05 00:01:35;;;;;;;7.60;7.20;;;19.30;48.50;;;;;;4972199;28;20579;-66
2023/03/05 00:04:08;;;;;;;7.40;7.20;;;19.30;48.50;;;;;;4972150;28;20491;-66
2023/03/05 00:06:34;;;;;;;7.47;7.27;;;19.30;48.50;;;;;;4972435;28;20450;-66
2023/03/05 00:09:02;;;;;;;7.30;7.00;;;19.30;48.60;;;;;;4972431;28;20698;-66
2023/03/05 00:11:32;;;;;;;8.00;7.70;;;19.20;48.50;;;;;;4971904;28;20476;-66
2023/03/05 00:14:00;;;;;;;7.37;7.17;;;19.20;48.60;;;;;;4972345;28;20494;-66
2023/03/05 00:16:28;;;;;;;7.13;7.03;;;19.20;48.60;;;;;;4972124;28;20523;-66
2023/03/05 00:18:56;;;;;;;7.40;7.20;;;19.20;48.60;;;;;;4972217;28;20479;-66
2023/03/05 00:21:25;;;;;;;7.60;7.40;;;19.20;48.70;;;;;;4971691;28;20522;-66
2023/03/05 00:23:54;;;;;;;7.03;6.93;;;19.20;48.70;;;;;;4972155;28;20881;-66
2023/03/05 00:26:23;;;;;;;7.87;7.47;;;19.20;48.70;;;;;;4972082;28;20950;-65
2023/03/05 00:28:52;;;;;;;7.20;7.00;;;19.20;48.70;;;;;;4972109;28;20483;-66
2023/03/05 00:31:21;;;;;;;7.70;7.40;;;19.10;48.60;;;;;;4971798;28;20525;-66
2023/03/05 00:33:51;;;;;;;7.43;7.13;;;19.10;48.60;;;;;;4971816;28;20885;-66
2023/03/05 00:36:19;;;;;;;7.33;7.13;;;19.10;48.60;;;;;;4970841;28;20490;-65
2023/03/05 00:38:45;;;;;;;7.40;7.20;;;19.10;48.60;;;;;;4971994;28;20476;-66
2023/03/05 00:41:12;;;;;;;7.83;7.63;;;19.10;48.60;;;;;;4971357;28;20949;-66
2023/03/05 00:43:39;;;;;;;7.20;7.00;;;19.10;48.60;;;;;;4971796;28;20487;-65
2023/03/05 00:46:08;;;;;;;7.20;7.00;;;19.10;48.70;;;;;;4971850;28;20491;-65
2023/03/05 00:48:34;;;;;;;7.00;6.77;;;19.10;48.70;;;;;;4971760;28;20498;-66
2023/03/05 00:51:01;;;;;;;9.13;8.83;;;19.10;48.70;;;;;;4970915;28;20533;-66
2023/03/05 00:53:29;;;;;;;7.20;7.00;;;19.00;48.70;;;;;;4971501;28;20996;-65
2023/03/05 00:55:55;;;;;;;7.60;7.30;;;19.10;48.80;;;;;;4971656;28;20530;-65
2023/03/05 00:58:22;;;;;;;7.93;7.50;;;19.00;48.70;;;;;;4971650;28;20483;-66
2023/03/05 01:00:49;;;;;;;7.57;6.97;;;19.00;48.70;;;;;;4971593;28;20631;-66
2023/03/05 01:03:18;;;;;;;7.50;7.40;;;19.00;48.80;;;;;;4971101;28;20483;-66
2023/03/05 01:05:45;;;;;;;7.40;7.23;;;19.00;48.80;;;;;;4971574;28;20906;-66
2023/03/05 01:08:12;;;;;;;7.80;7.60;;;19.00;48.80;;;;;;4971531;28;20538;-66
2023/03/05 01:10:39;;;;;;;7.73;7.53;;;19.00;48.80;;;;;;4971330;28;20502;-65
2023/03/05 01:13:05;;;;;;;7.93;7.63;;;19.00;48.80;;;;;;4970988;28;20480;-66
2023/03/05 01:15:32;;;;;;;7.70;7.50;;;19.00;48.80;;;;;;4971470;28;20483;-66
2023/03/05 01:17:59;;;;;;;7.00;6.80;;;19.00;48.80;;;;;;4971308;28;20484;-65
2023/03/05 01:20:27;;;;;;;7.63;7.23;;;18.90;48.70;;;;;;4971331;28;20552;-65
2023/03/05 01:22:55;;;;;;;7.77;7.57;;;18.90;48.70;;;;;;4970707;28;20484;-65
2023/03/05 01:25:22;;;;;;;7.50;7.30;;;18.90;48.70;;;;;;4971212;28;20456;-65
2023/03/05 01:27:49;;;;;;;7.50;7.30;;;18.90;48.70;;;;;;4971184;28;20973;-65
2023/03/05 01:30:16;;;;;;;7.30;7.20;;;18.90;48.80;;;;;;4971190;28;20987;-65
2023/03/05 01:32:43;;;;;;;7.30;7.00;;;18.90;48.80;;;;;;4970843;28;20448;-65
2023/03/05 01:35:15;;;;;;;7.23;7.00;;;18.90;48.70;;;;;;4970687;28;20483;-65
2023/03/05 01:37:43;;;;;;;7.10;6.97;;;18.90;48.80;;;;;;4971079;28;20482;-65
2023/03/05 01:40:13;;;;;;;21.63;7.23;;;18.90;48.80;;;;;;4970748;28;20444;-65
2023/03/05 01:42:40;;;;;;;6.87;6.77;;;18.90;48.80;;;;;;4970774;28;20817;-65
2023/03/05 01:45:09;;;;;;;6.90;6.70;;;18.90;48.80;;;;;;4971081;28;20483;-65
2023/03/05 01:47:37;;;;;;;6.93;6.83;;;18.90;48.80;;;;;;4970341;28;20462;-65
2023/03/05 01:50:07;;;;;;;7.53;7.33;;;18.90;48.80;;;;;;4970678;28;20882;-65
2023/03/05 01:52:36;;;;;;;7.70;7.50;;;18.90;48.80;;;;;;4970697;28;20888;-65
2023/03/05 01:55:08;;;;;;;7.60;7.40;;;18.90;48.80;;;;;;4970692;28;20483;-66
2023/03/05 01:57:38;;;;;;;6.90;6.80;;;18.90;48.80;;;;;;4970622;28;20480;-66
2023/03/05 02:00:10;;;;;;;7.30;7.10;;;18.90;48.80;;;;;;4970640;28;20527;-66
2023/03/05 02:02:37;;;;;;;7.90;7.70;;;18.90;48.80;;;;;;4970342;28;20515;-66
2023/03/05 02:05:08;;;;;;;7.70;7.50;;;18.80;48.80;;;;;;4970711;28;20483;-65
2023/03/05 02:07:38;;;;;;;7.10;6.90;;;18.80;48.80;;;;;;4970580;28;20482;-65
2023/03/05 02:10:18;;;;;;;8.10;7.60;;;18.80;48.80;;;;;;4970364;28;20452;-66
2023/03/05 02:12:45;;;;;;;7.53;7.13;;;18.80;48.80;;;;;;4970398;28;20482;-66
2023/03/05 02:15:12;;;;;;;7.40;7.20;;;18.80;48.80;;;;;;4970201;28;20535;-65
2023/03/05 02:17:39;;;;;;;7.20;7.00;;;18.80;48.80;;;;;;4970395;28;20885;-65
2023/03/05 02:20:10;;;;;;;7.07;6.87;;;18.80;48.80;;;;;;4970310;28;20443;-65
2023/03/05 02:22:38;;;;;;;7.60;7.40;;;18.80;48.80;;;;;;4969894;28;21067;-65
2023/03/05 02:25:14;;;;;;;7.13;6.93;;;18.80;48.80;;;;;;4970038;28;20487;-65
2023/03/05 02:27:44;;;;;;;7.90;7.50;;;18.80;48.90;;;;;;4970059;28;20483;-65
2023/03/05 02:30:12;;;;;;;6.90;6.80;;;18.80;48.90;;;;;;4970246;28;20484;-65
2023/03/05 02:32:39;;;;;;;7.87;7.67;;;18.80;48.90;;;;;;4970084;28;20451;-65
2023/03/05 02:35:07;;;;;;;7.23;6.93;;;18.80;48.90;;;;;;4970054;28;20480;-65
2023/03/05 02:37:34;;;;;;;7.23;6.90;;;18.80;48.90;;;;;;4970162;28;20879;-65
2023/03/05 02:40:03;;;;;;;7.40;7.20;;;18.80;48.90;;;;;;4970104;28;20490;-65
2023/03/05 02:42:32;;;;;;;7.40;7.30;;;18.80;48.90;;;;;;5015984;23;20518;-65
2023/03/05 02:44:59;;;;;;;7.50;7.30;;;18.80;48.90;;;;;;4993835;28;20530;-64
2023/03/05 02:47:26;;;;;;;7.53;7.33;;;18.80;48.90;;;;;;4989737;28;20965;-64
2023/03/05 02:49:53;;;;;;;7.77;7.53;;;18.80;48.90;;;;;;4989749;28;20485;-64
2023/03/05 02:52:22;;;;;;;7.20;7.10;;;18.80;48.90;;;;;;4980333;28;20546;-65
2023/03/05 02:54:49;;;;;;;6.97;6.77;;;18.80;48.90;;;;;;4970807;28;20553;-63
2023/03/05 02:57:17;;;;;;;7.17;6.97;;;18.80;48.90;;;;;;4970655;28;20494;-64
2023/03/05 02:59:45;;;;;;;7.47;7.27;;;18.80;48.90;;;;;;4973295;28;20490;-64
2023/03/05 03:02:12;;;;;;;7.07;6.87;;;18.70;48.90;;;;;;4973547;28;20928;-64
2023/03/05 03:04:39;;;;;;;7.60;7.40;;;18.70;48.80;;;;;;4972779;28;20494;-64
2023/03/05 03:07:06;;;;;;;6.83;6.67;;;18.80;48.90;;;;;;4973469;28;20527;-64
2023/03/05 03:09:35;;;;;;;7.00;6.90;;;18.80;48.90;;;;;;4973459;28;20483;-65
2023/03/05 03:12:01;;;;;;;7.10;6.90;;;18.70;48.90;;;;;;4973276;28;20467;-65
2023/03/05 03:14:37;;;;;;;7.67;7.40;;;18.70;48.90;;;;;;4973260;28;20491;-64
2023/03/05 03:17:05;;;;;;;7.50;7.20;;;18.70;48.90;;;;;;4971749;28;20462;-63
2023/03/05 03:19:31;;;;;;;6.77;6.67;;;18.70;48.80;;;;;;4973201;28;20483;-64
2023/03/05 03:21:58;;;;;;;7.20;7.10;;;18.70;48.90;;;;;;4972783;28;20508;-63
2023/03/05 03:24:25;;;;;;;6.90;6.60;;;18.70;48.90;;;;;;4962705;28;20481;-65
2023/03/05 03:26:52;;;;;;;7.00;6.90;;;18.70;48.90;;;;;;4954052;28;20982;-64
2023/03/05 03:29:19;;;;;;;7.03;6.93;;;18.70;48.90;;;;;;4954278;28;20536;-64
2023/03/05 03:31:47;;;;;;;7.13;6.93;;;18.70;48.80;;;;;;4953937;28;20492;-65
2023/03/05 03:34:15;;;;;;;7.10;7.00;;;18.70;48.90;;;;;;4958860;28;20544;-64
2023/03/05 03:36:42;;;;;;;7.33;6.83;;;18.70;48.80;;;;;;4954545;28;20483;-65
2023/03/05 03:39:10;;;;;;;7.30;7.10;;;18.70;48.90;;;;;;4954140;28;20484;-63
2023/03/05 03:41:40;;;;;;;7.40;7.20;;;18.70;48.80;;;;;;4953478;28;20531;-63
2023/03/05 03:44:07;;;;;;;6.60;6.50;;;18.70;48.80;;;;;;4953727;28;20937;-65
2023/03/05 03:46:34;;;;;;;7.03;6.87;;;18.70;48.80;;;;;;4965031;28;20490;-63
2023/03/05 03:49:03;;;;;;;6.60;6.50;;;18.70;48.90;;;;;;4973125;28;20483;-63
2023/03/05 03:51:30;;;;;;;7.53;7.33;;;18.70;48.80;;;;;;4972145;28;20500;-64
2023/03/05 03:53:57;;;;;;;7.17;6.87;;;18.70;48.80;;;;;;4973190;28;20480;-65
2023/03/05 03:56:24;;;;;;;7.23;7.03;;;18.70;48.80;;;;;;4973082;28;20490;-64
2023/03/05 03:58:51;;;;;;;6.30;6.20;;;18.70;48.90;;;;;;4962014;28;20497;-64
2023/03/05 04:01:18;;;;;;;6.97;6.73;;;18.70;48.90;;;;;;4953480;28;20465;-65
2023/03/05 04:03:45;;;;;;;7.37;7.17;;;18.70;48.90;;;;;;4953602;28;20520;-65
2023/03/05 04:06:14;;;;;;;6.93;6.83;;;18.70;48.90;;;;;;4953464;28;20900;-64
2023/03/05 04:08:41;;;;;;;6.80;6.70;;;18.70;49.00;;;;;;4953380;28;20902;-64
2023/03/05 04:11:08;;;;;;;7.10;6.90;;;18.60;48.90;;;;;;4968640;28;20495;-64
2023/03/05 04:13:35;;;;;;;6.80;6.67;;;18.70;48.90;;;;;;4956521;28;20476;-65
2023/03/05 04:16:02;;;;;;;6.70;6.60;;;18.60;48.90;;;;;;4953401;28;20445;-64
2023/03/05 04:18:28;;;;;;;6.23;6.13;;;18.70;48.90;;;;;;4953487;28;20488;-66
2023/03/05 04:20:55;;;;;;;6.90;6.70;;;18.60;48.90;;;;;;4953114;28;20513;-65
2023/03/05 04:23:24;;;;;;;7.50;7.10;;;18.60;48.90;;;;;;4952832;28;20591;-64
2023/03/05 04:25:51;;;;;;;6.10;6.00;;;18.60;48.80;;;;;;4953680;28;20484;-64
2023/03/05 04:28:17;;;;;;;6.80;6.50;;;18.60;48.80;;;;;;4953828;28;20503;-64
2023/03/05 04:30:44;;;;;;;6.40;6.30;;;18.60;48.80;;;;;;4953665;28;20504;-64
2023/03/05 04:33:11;;;;;;;7.50;7.20;;;18.60;48.80;;;;;;4953025;28;20986;-64
2023/03/05 04:35:39;;;;;;;7.77;7.40;;;18.60;48.90;;;;;;4953326;28;20495;-64
2023/03/05 04:38:05;;;;;;;6.60;6.30;;;18.60;48.90;;;;;;4953446;28;20480;-65
2023/03/05 04:40:34;;;;;;;7.20;7.00;;;18.60;48.90;;;;;;4960482;28;20452;-64
2023/03/05 04:43:01;;;;;;;6.50;6.40;;;18.60;48.90;;;;;;4972360;28;20519;-64
2023/03/05 04:45:28;;;;;;;7.23;7.07;;;18.60;48.90;;;;;;4972410;28;20510;-65
2023/03/05 04:47:55;;;;;;;6.93;6.63;;;18.60;49.50;;;;;;4971985;28;20483;-65
2023/03/05 04:50:22;;;;;;;7.20;6.77;;;18.60;48.90;;;;;;4972150;28;20475;-65
2023/03/05 04:52:49;;;;;;;6.90;6.50;;;18.70;49.00;;;;;;4972051;28;20487;-64
2023/03/05 04:55:16;;;;;;;7.70;7.47;;;18.70;49.00;;;;;;4972758;28;20484;-65
2023/03/05 04:57:45;;;;;;;6.17;6.07;;;18.70;49.00;;;;;;4972287;28;21015;-64
2023/03/05 05:00:15;;;;;;;7.70;7.40;;;18.70;49.00;;;;;;4954556;28;20481;-65
2023/03/05 05:02:43;;;;;;;6.77;6.57;;;18.70;49.10;;;;;;4952500;28;20493;-59
2023/03/05 05:05:12;;;;;;;6.47;6.27;;;18.70;49.10;;;;;;4952207;28;20481;-61
2023/03/05 05:07:39;;;;;;;6.97;6.60;;;18.70;49.00;;;;;;4952234;28;20453;-60
2023/03/05 05:10:07;;;;;;;6.70;6.50;;;18.70;49.00;;;;;;4954212;28;20480;-62
2023/03/05 05:12:34;;;;;;;7.03;6.93;;;18.70;49.00;;;;;;4971244;28;20575;-63
2023/03/05 05:15:03;;;;;;;6.80;6.60;;;18.70;49.10;;;;;;4971346;28;20873;-61
2023/03/05 05:17:31;;;;;;;6.50;6.30;;;18.70;49.00;;;;;;4971332;28;20487;-64
2023/03/05 05:19:59;;;;;;;6.03;5.93;;;18.70;49.00;;;;;;4971313;28;20877;-61
2023/03/05 05:22:27;;;;;;;6.20;6.10;;;18.70;49.00;;;;;;4968642;28;20523;-63
2023/03/05 05:24:54;;;;;;;6.50;6.20;;;18.70;49.00;;;;;;4962541;28;20995;-62
2023/03/05 05:27:21;;;;;;;6.20;6.10;;;18.70;49.10;;;;;;4951929;28;20543;-62
2023/03/05 05:29:51;;;;;;;6.60;6.40;;;18.70;49.10;;;;;;4951879;28;20484;-61
2023/03/05 05:32:22;;;;;;;6.53;6.43;;;18.70;49.10;;;;;;4951786;28;20473;-60
2023/03/05 05:34:49;;;;;;;6.40;6.20;;;18.70;49.10;;;;;;4958714;28;20950;-61
2023/03/05 05:37:16;;;;;;;6.10;6.00;;;18.70;49.10;;;;;;4959768;28;20492;-62
2023/03/05 05:39:48;;;;;;;6.00;5.90;;;18.70;49.20;;;;;;4951693;28;20485;-61
2023/03/05 05:42:16;;;;;;;6.27;6.03;;;18.70;49.20;;;;;;4951516;28;20484;-60
2023/03/05 05:44:43;;;;;;;6.47;6.37;;;18.70;49.20;;;;;;4951687;28;20516;-62
2023/03/05 05:47:09;;;;;;;6.87;6.63;;;18.70;49.20;;;;;;4963398;28;20452;-60
2023/03/05 05:49:38;;;;;;;6.70;6.50;;;18.70;49.10;;;;;;4970879;28;20491;-64
2023/03/05 05:52:05;;;;;;;6.03;5.83;;;18.70;49.10;;;;;;4970602;28;20519;-57
2023/03/05 05:54:32;;;;;;;6.80;6.60;;;18.70;49.10;;;;;;4970810;28;20502;-63
2023/03/05 05:56:59;;;;;;;6.37;6.27;;;18.80;49.10;;;;;;4970768;28;20532;-59
2023/03/05 05:59:26;;;;;;;6.70;6.50;;;18.80;49.00;;;;;;4953930;28;20548;-62
2023/03/05 06:01:53;;;;;;;6.30;6.20;;;18.90;49.00;;;;;;4951250;28;20991;-61
2023/03/05 06:04:20;;;;;;;6.20;6.10;;;18.90;48.90;;;;;;4951301;28;20528;-60
2023/03/05 06:06:48;;;;;;;6.70;6.40;;;18.90;48.80;;;;;;4951464;28;20480;-61
2023/03/05 06:09:15;;;;;;;7.23;7.03;;;18.90;48.70;;;;;;4952654;28;20539;-63
2023/03/05 06:11:42;;;;;;;6.57;6.37;;;19.00;48.90;;;;;;4951641;28;20469;-57
2023/03/05 06:14:10;;;;;;;6.30;6.20;;;19.10;49.00;;;;;;4951982;28;20536;-61
2023/03/05 06:16:37;;;;;;;7.13;6.93;;;19.10;48.70;;;;;;4951323;28;20452;-60
2023/03/05 06:19:05;;;;;;;15.23;7.10;;;19.20;48.60;;;;;;4951515;28;20543;-58
2023/03/05 06:21:32;;;;;;;7.77;7.30;;;19.20;48.50;;;;;;4966564;28;20491;-57
2023/03/05 06:24:01;;;;;;;6.87;6.70;;;19.20;48.40;;;;;;4951048;28;20923;-66
2023/03/05 06:26:28;;;;;;;7.57;7.37;;;19.30;48.70;;;;;;4951169;28;20484;-66
2023/03/05 06:28:55;;;;;;;6.57;6.40;;;19.30;49.00;;;;;;4951085;28;20485;-65
2023/03/05 06:31:24;;;;;;;7.27;6.93;;;19.40;49.00;;;;;;4952260;28;20879;-64
2023/03/05 06:33:51;;;;;;;6.97;5.45;;;19.40;49.00;;;;;;4968306;28;20513;-56
2023/03/05 06:36:20;;;;;;;8.43;7.70;;;19.50;48.80;;;;;;4970361;28;20240;-67
2023/03/05 06:38:47;;;;;;;9.80;8.97;;;19.60;49.40;;;;;;4970532;28;20537;-61
2023/03/05 06:41:24;;;;;;;10.30;9.30;;;19.60;49.70;;;;;;4969949;28;20559;-65
2023/03/05 06:43:51;;;;;;;10.50;9.60;;;19.70;49.10;;;;;;4970456;28;20515;-63
2023/03/05 06:46:23;;;;;;;10.90;9.90;;;19.70;49.10;;;;;;4970518;28;20483;-65
2023/03/05 06:48:51;;;;;;;16.27;10.60;;;19.70;49.20;;;;;;4962968;28;20485;-64
2023/03/05 06:51:20;;;;;;;12.77;10.83;;;19.70;49.50;;;;;;4950945;28;20887;-65
2023/03/05 06:53:48;;;;;;;10.80;9.80;;;19.70;49.50;;;;;;4950826;28;20451;-66
2023/03/05 06:56:16;;;;;;;11.83;10.40;;;19.80;49.50;;;;;;4950818;28;20480;-65
2023/03/05 06:58:44;;;;;;;13.00;11.00;;;19.80;49.60;;;;;;4956527;28;20448;-65
2023/03/05 07:01:11;;;;;;;13.40;11.33;;;19.80;49.70;;;;;;4969768;28;20815;-68
2023/03/05 07:03:39;;;;;;;29.87;11.90;;;19.80;49.80;;;;;;4969730;28;20570;-63
2023/03/05 07:06:07;;;;;;;12.40;11.40;;;19.80;49.70;;;;;;4969825;28;20488;-61
2023/03/05 07:08:35;;;;;;;10.77;9.17;;;19.90;49.60;;;;;;4970253;28;20476;-63
2023/03/05 07:11:02;;;;;;;15.50;11.07;;;20.00;50.00;;;;;;4968290;28;21013;-65
2023/03/05 07:13:30;;;;;;;13.38;10.20;;;20.10;50.10;;;;;;4968975;28;20442;-66
2023/03/05 07:15:57;;;;;;;16.03;10.47;;;20.10;49.80;;;;;;4969805;28;20269;-63
2023/03/05 07:18:24;;;;;;;11.37;10.27;;;20.10;49.20;;;;;;4970316;28;20539;-61
2023/03/05 07:20:51;;;;;;;11.70;10.50;;;20.20;49.00;;;;;;4965607;28;20515;-65
2023/03/05 07:23:18;;;;;;;12.30;10.83;;;20.10;49.10;;;;;;4969663;28;20507;-65
2023/03/05 07:25:45;;;;;;;16.87;10.93;;;20.10;49.20;;;;;;4969919;28;20479;-67
2023/03/05 07:28:12;;;;;;;12.73;11.70;;;20.10;49.20;;;;;;4969876;28;20486;-64
2023/03/05 07:30:40;;;;;;;11.33;10.37;;;20.10;49.10;;;;;;4969799;28;20569;-64
2023/03/05 07:33:07;;;;;;;12.27;11.17;;;20.10;49.10;;;;;;4968146;28;20488;-63
2023/03/05 07:35:34;;;;;;;10.57;9.90;;;20.10;49.00;;;;;;4969996;28;20483;-62
2023/03/05 07:38:01;;;;;;;16.50;9.48;;;20.10;48.90;;;;;;4969709;28;20813;-63
2023/03/05 07:40:28;;;;;;;10.75;9.73;;;20.20;49.00;;;;;;4968285;28;20534;-66
2023/03/05 07:42:54;;;;;;;17.20;16.00;;;20.20;49.40;;;;;;4949788;28;20946;-61
2023/03/05 07:45:21;;;;;;;20.83;19.10;;;20.20;48.70;;;;;;4952980;28;20280;-58
2023/03/05 07:47:50;;;;;;;19.23;17.90;;;20.30;48.60;;;;;;4953860;28;20476;-64
2023/03/05 07:50:17;;;;;;;17.67;16.70;;;20.30;48.40;;;;;;4954320;28;20459;-66
2023/03/05 07:52:44;;;;;;;18.30;17.10;;;20.30;48.40;;;;;;4972656;28;20819;-68
2023/03/05 07:55:11;;;;;;;17.87;16.87;;;20.20;48.30;;;;;;4973280;28;20444;-64
2023/03/05 07:57:38;;;;;;;18.80;17.52;;;20.20;48.30;;;;;;4972559;28;20482;-67
2023/03/05 08:00:07;;;;;;;17.53;16.63;;;20.20;48.20;;;;;;4972369;28;20459;-65
2023/03/05 08:02:33;;;;;;;16.97;15.97;;;20.20;48.20;;;;;;4955984;28;20523;-63
2023/03/05 08:05:02;;;;;;;18.45;16.88;;;20.20;48.20;;;;;;4953104;28;20491;-57
2023/03/05 08:07:29;;;;;;;17.10;16.20;;;20.20;48.10;;;;;;4953632;28;20255;-59
2023/03/05 08:09:56;;;;;;;18.23;17.20;;;20.30;48.00;;;;;;4954074;28;20488;-54
2023/03/05 08:12:23;;;;;;;18.20;16.97;;;20.20;47.80;;;;;;4953460;28;20469;-58
2023/03/05 08:14:50;;;;;;;17.07;16.20;;;20.20;47.80;;;;;;4954565;28;20514;-61
2023/03/05 08:17:17;;;;;;;17.43;16.53;;;20.20;47.70;;;;;;4953838;28;20449;-56
2023/03/05 08:19:44;;;;;;;17.30;16.13;;;20.20;47.70;;;;;;4953419;28;20476;-59
2023/03/05 08:22:14;;;;;;;17.63;16.63;;;20.30;47.80;;;;;;4953196;28;20511;-50
2023/03/05 08:24:41;;;;;;;17.77;16.87;;;20.30;47.60;;;;;;4954464;28;20510;-54
2023/03/05 08:27:08;;;;;;;17.63;16.40;;;20.40;47.70;;;;;;4953259;28;20484;-52
2023/03/05 08:29:35;;;;;;;17.00;16.30;;;20.30;47.50;;;;;;4952980;28;20485;-50
2023/03/05 08:32:02;;;;;;;17.83;17.10;;;20.30;47.40;;;;;;4952630;28;20508;-57
2023/03/05 08:34:29;;;;;;;17.33;16.53;;;20.30;47.40;;;;;;4967631;28;20997;-51
2023/03/05 08:36:56;;;;;;;17.93;16.93;;;20.40;47.40;;;;;;4956217;28;20444;-49
2023/03/05 08:39:24;;;;;;;17.27;16.48;;;20.40;47.30;;;;;;4971940;28;20485;-59
2023/03/05 08:41:51;;;;;;;18.20;17.20;;;20.40;47.30;;;;;;5011688;22;20592;-63
2023/03/05 08:44:18;;;;;;;17.27;16.57;;;20.40;47.30;;;;;;5003153;28;20593;-65
2023/03/05 08:46:45;;;;;;;18.03;17.00;;;20.40;47.40;;;;;;4995286;28;20447;-65
2023/03/05 08:49:12;;;;;;;16.90;16.20;;;20.40;47.40;;;;;;4991854;28;20491;-64
2023/03/05 08:51:39;;;;;;;17.00;16.10;;;20.40;47.30;;;;;;4991439;28;20981;-66
2023/03/05 08:54:07;;;;;;;18.90;17.40;;;20.50;47.30;;;;;;4992203;28;20486;-66
2023/03/05 08:56:36;;;;;;;18.90;17.83;;;20.50;47.30;;;;;;4979025;28;20502;-66
2023/03/05 08:59:03;;;;;;;17.53;16.70;;;20.50;47.10;;;;;;4972779;28;20452;-65
2023/03/05 09:01:31;;;;;;;17.20;16.40;;;20.40;47.00;;;;;;4972707;28;20889;-65
2023/03/05 09:03:58;;;;;;;16.30;15.80;;;20.40;47.00;;;;;;4972718;28;20498;-66
2023/03/05 09:06:26;;;;;;;17.37;16.47;;;20.40;47.00;;;;;;4972819;28;20471;-62
2023/03/05 09:08:53;;;;;;;16.07;15.57;;;20.40;47.00;;;;;;4988692;28;20996;-64
2023/03/05 09:11:21;;;;;;;17.10;16.40;;;20.50;47.20;;;;;;4991517;28;21009;-58
2023/03/05 09:13:49;;;;;;;18.20;17.30;;;20.50;47.10;;;;;;4991550;28;20486;-62
2023/03/05 09:16:18;;;;;;;16.67;15.87;;;20.50;47.10;;;;;;4991724;28;20475;-57
2023/03/05 09:18:45;;;;;;;16.40;15.70;;;20.50;47.10;;;;;;4991727;28;20732;-57
2023/03/05 09:21:14;;;;;;;17.10;16.20;;;20.50;46.90;;;;;;4985423;28;20525;-63
2023/03/05 09:23:42;;;;;;;16.70;15.90;;;20.50;46.90;;;;;;4991251;28;20500;-63
2023/03/05 09:26:11;;;;;;;17.03;16.33;;;20.50;46.90;;;;;;4991671;28;20794;-62
2023/03/05 09:28:39;;;;;;;16.40;15.80;;;20.40;46.70;;;;;;4991868;28;20454;-58
2023/03/05 09:31:08;;;;;;;15.47;14.97;;;20.50;46.70;;;;;;4989792;28;20986;-63
2023/03/05 09:33:36;;;;;;;17.17;16.40;;;20.50;46.90;;;;;;4990777;28;20474;-59
2023/03/05 09:36:03;;;;;;;16.90;16.07;;;20.40;46.80;;;;;;4991798;28;20479;-66
2023/03/05 09:38:31;;;;;;;17.43;16.67;;;20.40;46.60;;;;;;4991995;28;20498;-63
2023/03/05 09:41:06;;;;;;;17.53;15.97;;;19.90;43.90;;;;;;4990712;28;20478;-62
2023/03/05 09:43:44;;;;;;;17.67;16.97;;;20.00;44.60;;;;;;4971868;28;20448;-68
2023/03/05 09:46:24;;;;;;;17.30;16.40;;;20.00;44.10;;;;;;4972424;28;20916;-63
2023/03/05 09:48:53;;;;;;;16.60;16.10;;;20.10;43.80;;;;;;4972674;28;20887;-63
2023/03/05 09:51:25;;;;;;;17.90;17.20;;;20.00;43.40;;;;;;4988513;28;20499;-63
2023/03/05 09:54:01;;;;;;;16.93;16.43;;;20.00;43.20;;;;;;4991315;28;20467;-64
2023/03/05 09:56:31;;;;;;;16.47;15.87;;;20.00;43.00;;;;;;4991366;28;20852;-65
2023/03/05 09:59:03;;;;;;;17.10;16.50;;;20.00;42.90;;;;;;4990481;28;20482;-64
2023/03/05 10:01:38;;;;;;;9.53;9.10;;;19.90;42.80;;;;;;4990278;28;20888;-65
2023/03/05 10:04:12;;;;;;;8.43;8.23;;;20.00;43.70;;;;;;4990964;28;20446;-66
2023/03/05 10:06:48;;;;;;;9.43;8.83;;;20.10;44.10;;;;;;4991107;28;21030;-67
2023/03/05 10:09:21;;;;;;;9.50;9.00;;;20.10;44.40;;;;;;4991608;28;20799;-69
2023/03/05 10:11:53;;;;;;;8.80;8.50;;;20.10;45.10;;;;;;4989912;28;20479;-68
2023/03/05 10:14:26;;;;;;;9.40;8.67;;;20.20;45.70;;;;;;4992072;28;20447;-67
2023/03/05 10:17:18;;;;;;;8.83;8.40;;;20.20;45.20;;;;;;4992259;28;20946;-67
2023/03/05 10:20:15;;;;;;;8.83;8.53;;;20.20;44.90;;;;;;4993087;28;20494;-67
2023/03/05 10:22:56;;;;;;;8.80;7.93;;;20.20;44.90;;;;;;4993416;28;20475;-67
2023/03/05 10:25:32;;;;;;;9.20;8.60;;;20.20;44.80;;;;;;4994907;28;20487;-68
2023/03/05 10:28:04;;;;;;;9.47;8.50;;;20.20;45.50;;;;;;5000368;28;20462;-67
2023/03/05 10:30:53;;;;;;;11.97;10.97;;;20.30;46.30;;;;;;4995828;28;20542;-67
2023/03/05 10:33:30;;;;;;;10.60;9.70;;;20.20;47.10;;;;;;5000655;28;20446;-67
2023/03/05 10:36:24;;;;;;;11.70;10.60;;;20.30;47.70;;;;;;4998126;28;20439;-64
2023/03/05 10:39:09;;;;;;;13.33;10.13;;;20.20;50.50;;;;;;4992479;28;20887;-63
2023/03/05 10:41:42;;;;;;;11.83;10.90;;;20.20;52.60;;;;;;4994319;28;20478;-64
2023/03/05 10:44:16;;;;;;;13.20;11.77;;;20.20;53.30;;;;;;4990965;28;21041;-66
2023/03/05 10:46:46;;;;;;;11.57;10.60;;;20.20;53.30;;;;;;4980352;28;20460;-68
2023/03/05 10:49:20;;;;;;;11.73;11.13;;;20.20;53.00;;;;;;4988518;28;20557;-68
2023/03/05 10:51:52;;;;;;;11.07;10.23;;;20.10;52.60;;;;;;4992497;28;20502;-68
2023/03/05 10:54:25;;;;;;;12.37;11.47;;;20.10;52.50;;;;;;4990858;28;20442;-68
2023/03/05 10:57:03;;;;;;;12.20;11.45;;;20.20;52.50;;;;;;4990731;28;20885;-66
2023/03/05 10:59:31;;;;;;;12.27;10.97;;;20.20;52.50;;;;;;4972640;28;20239;-65
2023/03/05 11:02:03;;;;;;;11.87;11.13;;;20.20;53.50;;;;;;4970601;28;20560;-63
2023/03/05 11:04:36;;;;;;;14.47;11.90;;;20.20;54.10;;;;;;4970544;28;20537;-65
2023/03/05 11:07:07;;;;;;;13.47;12.27;;;20.20;53.90;;;;;;4970654;28;20458;-61
2023/03/05 11:09:34;;;;;;;12.03;11.23;;;20.30;53.90;;;;;;4970999;28;20440;-66
2023/03/05 11:12:20;;;;;;;12.30;11.30;;;20.20;53.00;;;;;;4970023;28;20503;-63
2023/03/05 11:15:05;;;;;;;11.20;10.43;;;20.10;52.30;;;;;;4971253;28;20450;-63
2023/03/05 11:17:36;;;;;;;11.40;10.53;;;20.10;52.40;;;;;;4970732;28;20448;-62
2023/03/05 11:20:30;;;;;;;12.37;11.07;;;20.20;52.30;;;;;;4977521;28;20446;-65
2023/03/05 11:23:06;;;;;;;10.70;10.00;;;20.20;52.50;;;;;;4992537;28;20947;-64
2023/03/05 11:25:35;;;;;;;15.47;11.90;;;20.20;52.20;;;;;;4993276;28;20259;-65
2023/03/05 11:28:03;;;;;;;11.63;11.07;;;20.40;52.00;;;;;;4992635;28;21001;-65
2023/03/05 11:30:32;;;;;;;11.23;10.37;;;20.40;51.70;;;;;;4992538;28;20447;-63
2023/03/05 11:33:14;;;;;;;11.00;10.60;;;20.30;51.90;;;;;;4981885;28;20530;-64
2023/03/05 11:35:44;;;;;;;10.80;10.20;;;20.20;50.50;;;;;;4972984;28;20535;-62
2023/03/05 11:38:17;;;;;;;11.03;10.50;;;20.20;49.90;;;;;;4973128;28;20851;-65
2023/03/05 11:40:44;;;;;;;10.80;10.13;;;20.20;50.10;;;;;;4972796;28;20483;-63
2023/03/05 11:43:15;;;;;;;9.70;9.20;;;20.20;50.70;;;;;;4972716;28;20483;-61
2023/03/05 11:45:43;;;;;;;10.03;9.40;;;20.20;50.80;;;;;;4977507;28;20522;-64
2023/03/05 11:48:17;;;;;;;10.30;9.70;;;20.20;50.90;;;;;;4990350;28;20507;-63
2023/03/05 11:50:49;;;;;;;10.10;9.43;;;20.30;50.80;;;;;;4992594;28;20538;-62
2023/03/05 11:53:21;;;;;;;10.57;9.60;;;20.30;50.70;;;;;;4992414;28;20482;-58
2023/03/05 11:55:52;;;;;;;9.83;9.33;;;20.20;50.60;;;;;;4977940;28;20479;-58
2023/03/05 11:58:28;;;;;;;10.17;9.33;;;20.30;50.40;;;;;;4972742;28;20954;-60
2023/03/05 12:00:55;;;;;;;9.70;9.20;;;20.30;50.40;;;;;;4972587;28;20454;-59
2023/03/05 12:03:25;;;;;;;12.23;11.07;;;20.40;50.20;;;;;;4972512;28;20483;-64
2023/03/05 12:05:59;;;;;;;10.20;9.37;;;20.30;50.10;;;;;;4972430;28;20511;-62
2023/03/05 12:08:29;;;;;;;10.10;9.70;;;20.30;50.20;;;;;;4972529;28;20539;-65
2023/03/05 12:10:57;;;;;;;10.20;9.60;;;20.30;50.10;;;;;;4972410;28;20531;-66
2023/03/05 12:13:31;;;;;;;10.10;9.70;;;20.20;50.30;;;;;;4985800;28;20501;-65
2023/03/05 12:16:12;;;;;;;9.80;9.23;;;20.20;50.40;;;;;;4992035;28;20498;-68
2023/03/05 12:18:57;;;;;;;10.50;9.80;;;20.20;50.60;;;;;;4987982;28;20487;-63
2023/03/05 12:21:33;;;;;;;10.47;9.90;;;20.20;50.10;;;;;;4972812;28;20511;-58
2023/03/05 12:24:01;;;;;;;9.37;9.17;;;20.10;49.50;;;;;;4972681;28;20455;-61
2023/03/05 12:26:54;;;;;;;10.43;9.80;;;19.90;48.20;;;;;;4989067;28;20849;-61
2023/03/05 12:29:30;;;;;;;9.90;9.20;;;19.70;47.40;;;;;;4991992;28;20451;-64
2023/03/05 12:31:58;;;;;;;9.30;8.90;;;19.70;47.30;;;;;;4978087;28;20513;-63
2023/03/05 12:34:49;;;;;;;8.15;7.55;;;19.60;47.90;;;;;;4971682;28;20470;-63
2023/03/05 12:37:54;;;;;;;9.23;8.80;;;19.50;48.50;;;;;;4973214;28;20236;-62
2023/03/05 12:40:25;;;;;;;11.67;11.13;;;19.60;47.70;;;;;;4962838;28;20821;-63
2023/03/05 12:42:55;;;;;;;8.00;7.60;;;19.50;47.50;;;;;;4972509;28;20496;-59
2023/03/05 12:45:44;;;;;;;9.03;8.63;;;19.50;47.90;;;;;;4972299;28;20235;-63
2023/03/05 12:48:45;;;;;;;10.33;9.70;;;19.50;48.10;;;;;;4972348;28;20447;-61
2023/03/05 12:51:14;;;;;;;9.07;8.87;;;19.50;48.30;;;;;;4971965;28;20994;-60
2023/03/05 12:53:40;;;;;;;9.97;9.60;;;19.40;48.50;;;;;;4972237;28;20577;-61